Time;durP1;ratioP1;P1;durP2;ratioP2;P2;SDS_P1;SDS_P2;PMS_P1;PMS_P2;Temp;Humidity;BMP_temperature;BMP_pressure;BME280_temperature;BME280_humidity;BME280_pressure;Samples;Min_cycle;Max_cycle;Signal;HPM_P1;HPM_P2
2021/01/08 00:01:59;;;;;;;15.38;8.00;;;4.20;99.90;;;;;;5049238;28;20302;-81
2021/01/08 00:04:25;;;;;;;13.75;6.78;;;4.30;99.90;;;;;;5088497;28;20200;-79
2021/01/08 00:06:54;;;;;;;13.80;7.10;;;4.30;99.90;;;;;;5075951;28;20183;-81
2021/01/08 00:09:20;;;;;;;14.75;8.40;;;4.20;99.90;;;;;;5092124;28;20176;-80
2021/01/08 00:11:46;;;;;;;16.60;7.27;;;4.20;99.90;;;;;;5091244;28;20179;-80
2021/01/08 00:14:12;;;;;;;14.67;7.97;;;4.20;99.90;;;;;;5071288;28;20196;-80
2021/01/08 00:16:38;;;;;;;13.40;7.55;;;4.20;99.90;;;;;;5088725;28;20200;-80
2021/01/08 00:19:03;;;;;;;17.17;8.03;;;4.20;99.90;;;;;;5085925;28;20658;-79
2021/01/08 00:21:36;;;;;;;18.93;9.00;;;4.20;99.90;;;;;;5079250;28;20196;-79
2021/01/08 00:24:04;;;;;;;13.55;6.95;;;4.20;99.90;;;;;;5077781;28;20225;-79
2021/01/08 00:26:29;;;;;;;15.10;7.78;;;4.30;99.90;;;;;;5077508;28;20543;-80
2021/01/08 00:28:55;;;;;;;16.47;7.40;;;4.30;99.90;;;;;;5075808;28;20172;-80
2021/01/08 00:31:21;;;;;;;16.77;8.37;;;4.30;99.90;;;;;;5077359;28;20176;-79
2021/01/08 00:33:46;;;;;;;22.70;9.23;;;4.30;99.90;;;;;;5077280;28;20176;-79
2021/01/08 00:36:20;;;;;;;14.27;8.10;;;4.30;99.90;;;;;;5042383;28;20287;-81
2021/01/08 00:38:45;;;;;;;22.70;9.73;;;4.40;99.90;;;;;;5059221;28;20647;-80
2021/01/08 00:41:11;;;;;;;32.40;9.80;;;4.30;99.90;;;;;;5074605;28;20229;-79
2021/01/08 00:43:36;;;;;;;16.40;8.67;;;4.30;99.90;;;;;;5058782;28;20607;-80
2021/01/08 00:46:02;;;;;;;18.77;9.30;;;4.30;99.90;;;;;;5075441;28;20235;-81
2021/01/08 00:48:28;;;;;;;18.00;10.20;;;4.30;99.90;;;;;;5059131;28;20180;-80
2021/01/08 00:51:03;;;;;;;16.13;8.67;;;4.30;99.90;;;;;;5059438;28;20203;-79
2021/01/08 00:53:28;;;;;;;15.30;8.48;;;4.30;99.90;;;;;;5075795;28;20176;-79
2021/01/08 00:55:54;;;;;;;16.50;8.20;;;4.30;99.90;;;;;;5074788;28;20245;-80
2021/01/08 00:58:22;;;;;;;13.27;7.30;;;4.40;99.90;;;;;;5058397;28;20175;-80
2021/01/08 01:00:48;;;;;;;15.65;8.27;;;4.40;99.90;;;;;;5075379;28;20217;-78
2021/01/08 01:03:13;;;;;;;17.60;9.27;;;4.40;99.90;;;;;;5075326;28;20168;-79
2021/01/08 01:05:41;;;;;;;13.80;9.43;;;4.40;99.90;;;;;;5074950;28;20199;-79
2021/01/08 01:08:13;;;;;;;17.10;8.57;;;4.50;99.90;;;;;;5076734;28;20223;-80
2021/01/08 01:10:38;;;;;;;17.85;8.57;;;4.30;99.90;;;;;;5075712;28;20187;-80
2021/01/08 01:13:04;;;;;;;18.23;8.07;;;4.30;99.90;;;;;;5058792;28;20182;-80
2021/01/08 01:15:29;;;;;;;14.53;7.70;;;4.20;99.90;;;;;;5075854;28;20695;-80
2021/01/08 01:17:55;;;;;;;17.37;9.13;;;4.10;99.90;;;;;;5058233;28;20172;-79
2021/01/08 01:20:21;;;;;;;17.33;8.80;;;4.20;99.90;;;;;;5076139;28;20199;-79
2021/01/08 01:22:46;;;;;;;21.57;10.47;;;4.10;99.90;;;;;;5074365;28;20168;-80
2021/01/08 01:25:12;;;;;;;18.57;11.20;;;4.10;99.90;;;;;;5057122;28;20242;-81
2021/01/08 01:27:38;;;;;;;12.23;8.30;;;4.20;99.90;;;;;;5073799;28;20176;-80
2021/01/08 01:30:07;;;;;;;22.27;8.83;;;4.20;99.90;;;;;;5074222;28;20380;-79
2021/01/08 01:32:32;;;;;;;14.13;7.57;;;4.20;99.90;;;;;;5061729;28;20414;-80
2021/01/08 01:34:58;;;;;;;13.20;7.70;;;4.20;99.90;;;;;;5094191;28;20225;-81
2021/01/08 01:37:24;;;;;;;10.77;7.40;;;4.30;99.90;;;;;;5093994;28;20184;-80
2021/01/08 01:39:49;;;;;;;20.47;9.20;;;4.30;99.90;;;;;;5093620;28;20191;-80
2021/01/08 01:42:15;;;;;;;15.27;9.27;;;4.30;99.90;;;;;;5085755;28;20180;-80
2021/01/08 01:44:40;;;;;;;13.43;7.57;;;4.20;99.90;;;;;;5083076;28;20218;-80
2021/01/08 01:47:06;;;;;;;12.47;7.83;;;4.30;99.90;;;;;;5081564;28;20258;-80
2021/01/08 01:49:32;;;;;;;14.47;7.80;;;4.30;99.90;;;;;;5076693;28;20200;-81
2021/01/08 01:52:00;;;;;;;13.87;7.67;;;4.20;99.90;;;;;;5076004;28;20274;-80
2021/01/08 01:54:26;;;;;;;18.20;7.47;;;4.20;99.90;;;;;;5074680;28;20191;-80
2021/01/08 01:56:51;;;;;;;20.43;10.07;;;4.30;99.90;;;;;;5057537;28;20176;-79
2021/01/08 01:59:17;;;;;;;16.27;8.97;;;4.30;99.90;;;;;;5076143;28;20180;-80
2021/01/08 02:01:42;;;;;;;14.80;8.57;;;4.30;99.90;;;;;;5075728;28;20766;-80
2021/01/08 02:04:08;;;;;;;29.07;8.50;;;4.40;99.90;;;;;;5074298;28;20750;-79
2021/01/08 02:06:39;;;;;;;16.90;8.63;;;4.40;99.90;;;;;;5074177;28;20199;-79
2021/01/08 02:09:12;;;;;;;18.02;8.43;;;4.40;99.90;;;;;;5074355;28;20501;-80
2021/01/08 02:11:42;;;;;;;17.10;8.07;;;4.40;99.90;;;;;;5076010;28;20200;-80
2021/01/08 02:14:19;;;;;;;12.38;7.70;;;4.30;99.90;;;;;;5074918;28;20188;-80
2021/01/08 02:16:47;;;;;;;11.82;7.00;;;4.20;99.90;;;;;;5075677;28;20183;-79
2021/01/08 02:19:28;;;;;;;14.57;7.47;;;4.10;99.90;;;;;;5074313;28;20179;-79
2021/01/08 02:22:29;;;;;;;17.60;8.82;;;4.20;99.90;;;;;;5075484;28;20227;-80
2021/01/08 02:25:06;;;;;;;16.33;8.40;;;4.20;99.90;;;;;;5076379;28;20184;-80
2021/01/08 02:27:34;;;;;;;18.85;9.60;;;4.30;99.90;;;;;;5075219;28;20250;-80
2021/01/08 02:30:00;;;;;;;18.30;8.57;;;4.30;99.90;;;;;;5058554;28;20183;-80
2021/01/08 02:32:26;;;;;;;12.18;6.88;;;4.20;99.90;;;;;;5058172;28;20179;-80
2021/01/08 02:34:53;;;;;;;15.77;8.48;;;4.20;99.90;;;;;;5057728;28;20199;-81
2021/01/08 02:37:19;;;;;;;13.30;6.60;;;4.30;99.90;;;;;;5074031;28;20165;-80
2021/01/08 02:39:46;;;;;;;11.95;7.32;;;4.30;99.90;;;;;;5074766;28;20169;-78
2021/01/08 02:42:14;;;;;;;17.48;8.60;;;4.30;99.90;;;;;;5074535;28;20173;-80
2021/01/08 02:44:40;;;;;;;12.95;7.50;;;4.30;99.90;;;;;;5075384;28;20271;-80
2021/01/08 02:47:06;;;;;;;15.07;8.07;;;4.30;99.90;;;;;;5073723;28;20208;-79
2021/01/08 02:49:32;;;;;;;19.40;8.90;;;4.30;99.90;;;;;;5073855;28;20204;-81
2021/01/08 02:52:03;;;;;;;15.20;7.20;;;4.30;99.90;;;;;;5075313;28;20222;-79
2021/01/08 02:54:28;;;;;;;15.55;8.52;;;4.30;99.90;;;;;;5075921;28;20196;-79
2021/01/08 02:57:01;;;;;;;20.93;9.73;;;4.20;99.90;;;;;;5074419;28;20183;-80
2021/01/08 02:59:28;;;;;;;14.27;7.25;;;4.20;99.90;;;;;;5060922;28;20180;-80
2021/01/08 03:01:54;;;;;;;14.85;8.35;;;4.20;99.90;;;;;;5078812;28;20198;-80
2021/01/08 03:04:20;;;;;;;18.25;9.13;;;4.20;99.90;;;;;;5078902;28;20188;-79
2021/01/08 03:06:46;;;;;;;19.17;10.13;;;4.20;99.90;;;;;;5082303;28;20171;-79
2021/01/08 03:09:15;;;;;;;21.27;9.13;;;4.20;99.90;;;;;;5089193;28;20422;-81
2021/01/08 03:11:50;;;;;;;15.70;8.52;;;4.20;99.90;;;;;;5074592;28;20172;-79
2021/01/08 03:14:16;;;;;;;18.30;11.15;;;4.20;99.90;;;;;;5062098;28;20203;-79
2021/01/08 03:16:42;;;;;;;14.73;7.47;;;4.10;99.90;;;;;;5078993;28;20183;-79
2021/01/08 03:19:07;;;;;;;18.13;9.10;;;4.10;99.90;;;;;;5078802;28;20418;-80
2021/01/08 03:21:33;;;;;;;20.57;9.23;;;4.10;99.90;;;;;;5077456;28;20212;-80
2021/01/08 03:23:59;;;;;;;19.57;8.10;;;4.10;99.90;;;;;;5076937;28;20172;-80
2021/01/08 03:26:24;;;;;;;18.65;9.48;;;4.10;99.90;;;;;;5060566;28;20180;-80
2021/01/08 03:28:50;;;;;;;13.20;7.80;;;4.10;99.90;;;;;;5077101;28;20239;-80
2021/01/08 03:31:18;;;;;;;22.33;9.83;;;4.10;99.90;;;;;;5076755;28;20202;-80
2021/01/08 03:33:43;;;;;;;23.67;10.73;;;4.00;99.90;;;;;;5078364;28;20176;-80
2021/01/08 03:36:09;;;;;;;17.60;8.03;;;4.00;99.90;;;;;;5060835;28;20192;-80
2021/01/08 03:38:35;;;;;;;21.90;8.67;;;4.00;99.90;;;;;;5078142;28;20626;-81
2021/01/08 03:41:01;;;;;;;20.80;10.47;;;4.00;99.90;;;;;;5077826;28;20980;-80
2021/01/08 03:43:26;;;;;;;12.57;8.13;;;4.00;99.90;;;;;;5078904;28;20179;-80
2021/01/08 03:45:52;;;;;;;17.17;8.17;;;4.00;99.90;;;;;;5061137;28;21157;-80
2021/01/08 03:48:18;;;;;;;21.73;9.50;;;4.00;99.90;;;;;;5077146;28;20270;-80
2021/01/08 03:50:43;;;;;;;14.97;7.97;;;3.90;99.90;;;;;;5077415;28;20211;-80
2021/01/08 03:53:09;;;;;;;19.47;9.67;;;4.00;99.90;;;;;;5076796;28;20331;-80
2021/01/08 03:55:35;;;;;;;15.37;8.43;;;4.00;99.90;;;;;;5076954;28;20203;-80
2021/01/08 03:58:00;;;;;;;19.37;8.43;;;3.90;99.90;;;;;;5076928;28;20227;-80
2021/01/08 04:00:26;;;;;;;16.60;9.73;;;3.90;99.90;;;;;;5076737;28;20682;-80
2021/01/08 04:02:55;;;;;;;15.40;8.63;;;4.00;99.90;;;;;;5078510;28;20285;-79
2021/01/08 04:05:20;;;;;;;15.75;8.65;;;4.00;99.90;;;;;;5061114;28;20216;-79
2021/01/08 04:07:46;;;;;;;17.47;9.47;;;4.00;99.90;;;;;;5078274;28;20167;-80
2021/01/08 04:10:12;;;;;;;24.00;9.90;;;4.00;99.90;;;;;;5059414;28;20214;-80
2021/01/08 04:12:37;;;;;;;21.93;10.50;;;3.90;99.90;;;;;;5076468;28;20225;-80
2021/01/08 04:15:04;;;;;;;18.03;8.57;;;4.00;99.90;;;;;;5076118;28;20195;-79
2021/01/08 04:17:29;;;;;;;16.88;9.75;;;3.90;99.90;;;;;;5077742;28;20208;-79
2021/01/08 04:19:55;;;;;;;15.30;8.03;;;3.90;99.90;;;;;;5077578;28;20191;-80
2021/01/08 04:22:21;;;;;;;13.27;8.53;;;3.90;99.90;;;;;;5076406;28;20218;-80
2021/01/08 04:24:46;;;;;;;18.83;8.27;;;3.90;99.90;;;;;;5059239;28;20618;-80
2021/01/08 04:27:12;;;;;;;17.17;9.03;;;3.90;99.90;;;;;;5059986;28;20259;-80
2021/01/08 04:29:38;;;;;;;16.75;8.45;;;4.00;99.90;;;;;;5076713;28;20172;-81
2021/01/08 04:32:04;;;;;;;15.67;10.20;;;3.90;99.90;;;;;;5058829;28;20270;-80
2021/01/08 04:34:30;;;;;;;17.50;9.10;;;4.00;99.90;;;;;;5077533;28;20192;-80
2021/01/08 04:36:56;;;;;;;18.20;8.57;;;4.00;99.90;;;;;;5077478;28;20417;-80
2021/01/08 04:39:22;;;;;;;11.98;7.45;;;4.00;99.90;;;;;;5060111;28;20271;-81
2021/01/08 04:41:48;;;;;;;15.27;8.90;;;4.10;99.90;;;;;;5059119;28;20231;-80
2021/01/08 04:44:14;;;;;;;19.57;9.60;;;4.00;99.90;;;;;;5075289;28;20659;-79
2021/01/08 04:46:43;;;;;;;20.58;10.52;;;3.90;99.90;;;;;;5076204;28;20403;-80
2021/01/08 04:49:09;;;;;;;18.40;8.10;;;3.90;99.90;;;;;;5075798;28;20175;-80
2021/01/08 04:51:39;;;;;;;19.47;8.80;;;3.90;99.90;;;;;;5058294;28;20730;-80
2021/01/08 04:54:05;;;;;;;15.90;7.38;;;3.90;99.90;;;;;;5077727;28;20744;-80
2021/01/08 04:56:40;;;;;;;20.17;9.73;;;3.90;99.90;;;;;;5076570;28;20182;-79
2021/01/08 04:59:05;;;;;;;17.05;9.73;;;4.00;99.90;;;;;;5075346;28;20171;-80
2021/01/08 05:01:31;;;;;;;16.47;8.90;;;4.00;99.90;;;;;;5076163;28;20208;-81
2021/01/08 05:03:57;;;;;;;16.70;9.87;;;4.00;99.90;;;;;;5075524;28;20187;-79
2021/01/08 05:06:23;;;;;;;22.43;10.03;;;4.00;99.90;;;;;;5076841;28;20175;-79
2021/01/08 05:08:49;;;;;;;20.13;10.85;;;4.00;99.90;;;;;;5081161;28;20168;-79
2021/01/08 05:11:29;;;;;;;15.37;9.47;;;3.90;99.90;;;;;;5069657;28;20202;-80
2021/01/08 05:13:59;;;;;;;25.13;10.00;;;3.90;99.90;;;;;;5084370;28;20176;-81
2021/01/08 05:16:27;;;;;;;21.25;10.82;;;3.90;99.90;;;;;;5084358;28;20202;-80
2021/01/08 05:18:55;;;;;;;20.75;8.98;;;3.90;99.90;;;;;;5087369;28;20183;-79
2021/01/08 05:21:24;;;;;;;17.08;10.15;;;4.00;99.90;;;;;;5085067;28;20619;-79
2021/01/08 05:23:51;;;;;;;22.35;11.00;;;3.90;99.90;;;;;;5085069;28;20168;-78
2021/01/08 05:26:17;;;;;;;19.25;10.38;;;3.90;99.90;;;;;;5085565;28;20172;-80
2021/01/08 05:28:49;;;;;;;19.40;11.23;;;3.90;99.90;;;;;;5083619;28;20161;-78
2021/01/08 05:31:16;;;;;;;19.63;9.05;;;3.90;99.90;;;;;;5082379;28;20762;-79
2021/01/08 05:33:43;;;;;;;20.80;9.80;;;3.90;99.90;;;;;;5083078;28;20211;-80
2021/01/08 05:36:12;;;;;;;18.27;8.75;;;3.90;99.90;;;;;;5068238;28;20227;-77
2021/01/08 05:38:43;;;;;;;22.83;9.20;;;3.80;99.90;;;;;;5088430;28;20200;-80
2021/01/08 05:41:10;;;;;;;23.98;9.00;;;3.80;99.90;;;;;;5087070;28;20192;-80
2021/01/08 05:43:41;;;;;;;19.00;9.73;;;3.90;99.90;;;;;;5086787;28;20192;-79
2021/01/08 05:46:14;;;;;;;20.98;9.07;;;3.90;99.90;;;;;;5086520;28;20195;-80
2021/01/08 05:48:42;;;;;;;15.80;8.15;;;3.90;99.90;;;;;;5087401;28;20164;-78
2021/01/08 05:51:12;;;;;;;20.13;10.10;;;3.80;99.90;;;;;;5086061;28;20252;-79
2021/01/08 05:53:38;;;;;;;22.40;10.85;;;3.80;99.90;;;;;;5070047;28;20176;-79
2021/01/08 05:56:04;;;;;;;19.75;9.25;;;3.90;99.90;;;;;;5068454;28;20203;-79
2021/01/08 05:58:30;;;;;;;19.38;10.52;;;3.90;99.90;;;;;;5085050;28;20251;-81
2021/01/08 06:01:01;;;;;;;19.07;9.60;;;3.90;99.90;;;;;;5050915;28;20211;-80
2021/01/08 06:03:27;;;;;;;23.38;10.90;;;3.90;99.90;;;;;;5084506;28;20175;-81
2021/01/08 06:06:00;;;;;;;21.77;10.02;;;3.90;99.90;;;;;;5046786;28;20192;-79
2021/01/08 06:08:29;;;;;;;23.75;12.18;;;3.90;99.90;;;;;;5078766;28;20235;-81
2021/01/08 06:10:58;;;;;;;16.60;10.68;;;3.90;99.90;;;;;;5063887;28;20172;-80
2021/01/08 06:13:34;;;;;;;16.25;8.38;;;3.90;99.90;;;;;;5056780;28;20310;-82
2021/01/08 06:16:04;;;;;;;18.88;9.35;;;3.90;99.90;;;;;;5037686;28;20231;-80
2021/01/08 06:18:36;;;;;;;18.85;10.00;;;3.90;99.90;;;;;;5040602;28;20180;-81
2021/01/08 06:21:07;;;;;;;20.10;10.68;;;3.90;99.90;;;;;;5037736;28;20221;-80
2021/01/08 06:23:38;;;;;;;19.30;9.80;;;4.00;99.90;;;;;;5040505;28;20191;-81
2021/01/08 06:26:17;;;;;;;20.55;9.40;;;4.00;99.90;;;;;;5045697;28;20190;-82
2021/01/08 06:28:47;;;;;;;16.77;9.32;;;4.20;99.90;;;;;;5038675;28;20208;-81
2021/01/08 06:31:24;;;;;;;17.30;10.48;;;4.20;99.90;;;;;;5034821;28;20691;-81
2021/01/08 06:34:00;;;;;;;20.00;9.73;;;4.20;99.90;;;;;;5036442;28;20371;-80
2021/01/08 06:36:33;;;;;;;20.55;9.68;;;4.20;99.90;;;;;;5056706;28;20266;-81
2021/01/08 06:39:11;;;;;;;17.33;8.60;;;4.00;99.90;;;;;;5037664;28;20544;-81
2021/01/08 06:41:39;;;;;;;16.10;8.93;;;4.00;99.90;;;;;;5052003;28;20200;-82
2021/01/08 06:44:06;;;;;;;21.38;10.63;;;4.00;99.90;;;;;;5059112;28;20164;-81
2021/01/08 06:46:33;;;;;;;16.30;8.35;;;3.90;99.90;;;;;;5061012;28;20591;-82
2021/01/08 06:49:10;;;;;;;16.10;9.57;;;4.00;99.90;;;;;;5047580;28;20173;-83
2021/01/08 06:51:37;;;;;;;13.55;9.18;;;4.00;99.90;;;;;;5039444;28;20212;-80
2021/01/08 06:54:08;;;;;;;15.48;9.52;;;4.00;99.90;;;;;;5033436;28;20185;-81
2021/01/08 06:56:38;;;;;;;17.63;9.35;;;4.00;99.90;;;;;;5043320;28;20177;-81
2021/01/08 06:59:08;;;;;;;22.17;10.73;;;4.10;99.90;;;;;;5060672;28;20177;-80
2021/01/08 07:02:04;;;;;;;21.27;10.75;;;4.10;99.90;;;;;;5071599;28;20188;-80
2021/01/08 07:04:31;;;;;;;19.60;10.35;;;4.10;99.90;;;;;;5051607;28;20189;-80
2021/01/08 07:07:05;;;;;;;16.35;8.25;;;4.00;99.90;;;;;;5036955;28;20190;-81
2021/01/08 07:09:33;;;;;;;21.35;9.80;;;3.90;99.90;;;;;;5044622;28;20667;-80
2021/01/08 07:12:04;;;;;;;18.98;9.35;;;4.00;99.90;;;;;;5050789;28;20178;-81
2021/01/08 07:14:30;;;;;;;21.83;9.15;;;4.10;99.90;;;;;;5049242;28;20192;-81
2021/01/08 07:16:57;;;;;;;19.00;10.97;;;3.60;99.90;;;;;;5059119;28;20195;-81
2021/01/08 07:19:27;;;;;;;19.65;9.55;;;3.60;99.90;;;;;;5061248;28;20429;-81
2021/01/08 07:22:01;;;;;;;17.73;9.48;;;3.70;99.90;;;;;;5058336;28;20225;-80
2021/01/08 07:24:41;;;;;;;16.35;8.45;;;3.70;99.90;;;;;;5053824;28;20196;-79
2021/01/08 07:27:19;;;;;;;18.08;8.68;;;3.60;99.90;;;;;;5070155;28;20173;-79
2021/01/08 07:29:53;;;;;;;18.67;9.68;;;3.70;99.90;;;;;;5036843;28;20187;-80
2021/01/08 07:32:38;;;;;;;20.25;10.30;;;3.70;99.90;;;;;;5042553;28;20162;-79
2021/01/08 07:35:26;;;;;;;16.40;8.35;;;3.80;99.90;;;;;;5050810;28;20196;-78
2021/01/08 07:38:15;;;;;;;15.38;8.90;;;3.80;99.90;;;;;;5052049;28;20204;-79
2021/01/08 07:40:49;;;;;;;15.88;8.95;;;3.80;99.90;;;;;;5039096;28;20270;-79
2021/01/08 07:43:16;;;;;;;13.50;9.25;;;3.90;99.90;;;;;;5053644;28;20710;-80
2021/01/08 07:45:49;;;;;;;24.10;11.45;;;3.80;99.90;;;;;;5058336;28;20874;-80
2021/01/08 07:48:19;;;;;;;22.55;11.15;;;3.90;99.90;;;;;;5055728;28;20176;-79
2021/01/08 07:50:56;;;;;;;18.08;9.80;;;3.90;99.90;;;;;;5046124;28;20279;-80
2021/01/08 07:53:41;;;;;;;19.58;10.02;;;3.90;99.90;;;;;;5042223;28;20188;-81
2021/01/08 07:56:11;;;;;;;16.63;10.45;;;4.10;99.90;;;;;;5043103;28;20193;-80
2021/01/08 07:58:37;;;;;;;19.08;8.95;;;4.10;99.90;;;;;;5060808;28;20317;-80
2021/01/08 08:01:04;;;;;;;17.33;9.07;;;4.30;99.90;;;;;;5044201;28;20205;-81
2021/01/08 08:03:30;;;;;;;24.33;11.00;;;4.30;99.90;;;;;;5055192;28;20173;-81
2021/01/08 08:06:00;;;;;;;25.50;10.87;;;4.20;99.90;;;;;;5041960;28;20204;-81
2021/01/08 08:08:26;;;;;;;19.98;9.27;;;4.30;99.90;;;;;;5040949;28;20444;-81
2021/01/08 08:10:52;;;;;;;20.83;10.30;;;4.50;99.90;;;;;;5039971;28;20165;-80
2021/01/08 08:13:27;;;;;;;19.00;10.40;;;4.50;99.90;;;;;;5046559;28;20185;-80
2021/01/08 08:15:52;;;;;;;21.52;11.90;;;4.60;99.90;;;;;;5048646;28;20554;-81
2021/01/08 08:18:18;;;;;;;19.53;8.93;;;4.60;99.90;;;;;;5056757;28;20181;-79
2021/01/08 08:20:44;;;;;;;20.13;9.43;;;4.60;99.90;;;;;;5041192;28;20212;-79
2021/01/08 08:23:18;;;;;;;15.70;9.43;;;4.50;99.90;;;;;;5047184;28;20667;-79
2021/01/08 08:25:45;;;;;;;19.77;9.90;;;4.60;99.90;;;;;;5059969;28;20307;-80
2021/01/08 08:28:11;;;;;;;19.60;9.93;;;4.60;99.90;;;;;;5049783;28;20535;-79
2021/01/08 08:30:37;;;;;;;18.45;9.02;;;4.30;99.90;;;;;;5039483;28;20185;-80
2021/01/08 08:33:06;;;;;;;14.60;9.00;;;4.30;99.90;;;;;;5052838;28;20310;-79
2021/01/08 08:35:34;;;;;;;24.90;11.75;;;4.30;99.90;;;;;;5028096;28;20205;-80
2021/01/08 08:38:00;;;;;;;16.95;9.07;;;4.30;99.90;;;;;;5039408;28;20186;-80
2021/01/08 08:40:30;;;;;;;22.95;10.60;;;4.30;99.90;;;;;;5036984;28;20275;-79
2021/01/08 08:43:00;;;;;;;22.70;11.60;;;4.30;99.90;;;;;;5037034;28;20300;-78
2021/01/08 08:45:26;;;;;;;16.45;9.55;;;4.30;99.90;;;;;;5041596;28;20288;-79
2021/01/08 08:48:06;;;;;;;15.18;9.43;;;4.20;99.90;;;;;;5046904;28;20175;-78
2021/01/08 08:50:52;;;;;;;24.38;10.63;;;4.20;99.90;;;;;;5043012;28;20246;-79
2021/01/08 08:53:59;;;;;;;19.55;9.50;;;4.30;99.90;;;;;;5054964;28;20177;-79
2021/01/08 08:57:19;;;;;;;15.27;9.25;;;4.30;99.90;;;;;;5032301;28;20205;-80
2021/01/08 09:00:23;;;;;;;20.42;11.07;;;4.20;99.90;;;;;;4966127;28;20191;-80
2021/01/08 09:06:45;;;;;;;19.50;10.90;;;4.30;99.90;;;;;;4948830;28;20190;-79
2021/01/08 09:09:18;;;;;;;24.87;11.53;;;4.30;99.90;;;;;;4972635;28;20195;-79
2021/01/08 09:12:04;;;;;;;22.33;10.20;;;4.40;99.90;;;;;;5015182;28;20205;-80
2021/01/08 09:14:34;;;;;;;23.88;8.73;;;4.40;99.90;;;;;;5011773;28;20288;-79
2021/01/08 09:17:06;;;;;;;23.98;10.10;;;4.40;99.90;;;;;;5031316;28;20589;-79
2021/01/08 09:19:57;;;;;;;16.67;10.80;;;4.50;99.90;;;;;;5054232;28;20174;-79
2021/01/08 09:22:35;;;;;;;20.25;9.68;;;4.40;99.90;;;;;;5034824;28;20280;-79
2021/01/08 09:25:01;;;;;;;18.08;9.52;;;4.40;99.90;;;;;;5047957;28;20398;-79
2021/01/08 09:27:28;;;;;;;28.23;12.30;;;4.30;99.90;;;;;;5048112;28;20196;-79
2021/01/08 09:29:53;;;;;;;16.83;9.75;;;4.40;99.90;;;;;;5047002;28;20602;-80
2021/01/08 09:32:33;;;;;;;20.17;8.97;;;4.40;99.90;;;;;;5033619;28;20208;-80
2021/01/08 09:35:04;;;;;;;17.00;8.38;;;4.40;99.90;;;;;;5034610;28;20275;-80
2021/01/08 09:37:40;;;;;;;17.98;8.80;;;4.50;99.90;;;;;;5048212;28;20544;-80
2021/01/08 09:40:14;;;;;;;23.33;9.77;;;4.50;99.90;;;;;;5055118;28;20172;-79
2021/01/08 09:42:42;;;;;;;17.55;9.10;;;4.40;99.90;;;;;;5038079;28;20750;-79
2021/01/08 09:45:19;;;;;;;16.73;8.85;;;4.40;99.90;;;;;;5040261;28;20193;-80
2021/01/08 09:47:45;;;;;;;17.08;10.90;;;4.40;99.90;;;;;;5056329;28;20242;-79
2021/01/08 09:50:25;;;;;;;24.02;10.35;;;4.50;99.90;;;;;;5052357;28;20587;-79
2021/01/08 09:52:52;;;;;;;19.90;9.80;;;4.50;99.90;;;;;;5063765;28;20238;-79
2021/01/08 09:55:29;;;;;;;23.55;10.90;;;4.50;99.90;;;;;;5064330;28;20200;-80
2021/01/08 09:58:00;;;;;;;21.70;11.77;;;4.50;99.90;;;;;;5044605;28;20177;-81
2021/01/08 10:00:32;;;;;;;19.45;10.85;;;4.60;99.90;;;;;;5048103;28;20205;-81
2021/01/08 10:02:58;;;;;;;17.88;11.35;;;4.60;99.90;;;;;;5039625;28;20180;-82
2021/01/08 10:05:29;;;;;;;19.70;9.40;;;4.60;99.90;;;;;;5044715;28;20732;-80
2021/01/08 10:07:59;;;;;;;21.65;11.30;;;4.60;99.90;;;;;;5043667;28;20420;-80
2021/01/08 10:10:28;;;;;;;20.52;10.85;;;4.60;99.90;;;;;;5055141;28;20168;-79
2021/01/08 10:12:58;;;;;;;19.23;10.27;;;4.60;99.90;;;;;;5061095;28;20176;-79
2021/01/08 10:15:46;;;;;;;31.70;12.07;;;4.60;99.90;;;;;;5043961;28;20200;-82
2021/01/08 10:18:17;;;;;;;18.50;9.70;;;4.60;99.90;;;;;;5047085;28;20176;-79
2021/01/08 10:20:46;;;;;;;19.77;10.75;;;4.60;99.90;;;;;;5050198;28;20287;-79
2021/01/08 10:23:15;;;;;;;21.42;11.68;;;4.70;99.90;;;;;;5055898;28;20172;-79
2021/01/08 10:25:41;;;;;;;21.45;11.80;;;4.70;99.90;;;;;;5036572;28;20617;-79
2021/01/08 10:28:12;;;;;;;20.33;10.90;;;4.70;99.90;;;;;;5038323;28;20212;-78
2021/01/08 10:30:39;;;;;;;21.92;10.07;;;4.80;99.90;;;;;;5042351;28;20438;-78
2021/01/08 10:33:06;;;;;;;24.02;12.40;;;4.60;99.90;;;;;;5037584;28;20173;-78
2021/01/08 10:35:31;;;;;;;18.95;10.32;;;4.60;99.90;;;;;;5037935;28;20197;-78
2021/01/08 10:37:57;;;;;;;24.67;10.23;;;4.70;99.90;;;;;;5038524;28;20197;-78
2021/01/08 10:40:23;;;;;;;19.50;8.97;;;4.80;99.90;;;;;;5038693;28;20201;-78
2021/01/08 10:42:51;;;;;;;22.60;10.53;;;4.90;99.90;;;;;;5048023;28;20173;-80
2021/01/08 10:45:16;;;;;;;19.52;11.40;;;4.90;99.90;;;;;;5056706;28;20250;-78
2021/01/08 10:47:42;;;;;;;17.70;9.80;;;4.80;99.90;;;;;;5058631;28;20185;-79
2021/01/08 10:50:11;;;;;;;24.93;11.47;;;4.80;99.90;;;;;;5051119;28;20176;-79
2021/01/08 10:52:37;;;;;;;17.48;9.23;;;4.80;99.90;;;;;;5045942;28;20204;-79
2021/01/08 10:55:04;;;;;;;18.27;11.27;;;4.80;99.90;;;;;;5050754;28;20189;-79
2021/01/08 10:57:30;;;;;;;17.35;9.55;;;4.80;99.90;;;;;;5041684;28;20216;-80
2021/01/08 10:59:56;;;;;;;17.93;10.27;;;4.80;99.90;;;;;;5043275;28;20181;-79
2021/01/08 11:02:27;;;;;;;20.23;11.83;;;4.90;99.90;;;;;;5020539;28;20205;-79
2021/01/08 11:04:52;;;;;;;23.17;10.73;;;4.90;99.90;;;;;;5043519;28;20707;-79
2021/01/08 11:07:18;;;;;;;24.00;9.33;;;4.90;99.90;;;;;;5037048;28;20200;-79
2021/01/08 11:09:43;;;;;;;32.27;12.00;;;4.90;99.90;;;;;;5037815;28;20199;-79
2021/01/08 11:12:09;;;;;;;19.07;10.77;;;4.80;99.90;;;;;;5041600;28;20177;-79
2021/01/08 11:14:35;;;;;;;17.17;9.63;;;4.80;99.90;;;;;;5038673;28;20201;-80
2021/01/08 11:17:01;;;;;;;22.07;10.57;;;4.70;99.90;;;;;;5034933;28;20185;-79
2021/01/08 11:19:26;;;;;;;29.93;10.97;;;4.70;99.90;;;;;;5034663;28;20268;-79
2021/01/08 11:21:55;;;;;;;21.67;11.77;;;4.70;99.90;;;;;;5036635;28;20201;-78
2021/01/08 11:24:21;;;;;;;18.85;9.88;;;4.70;99.90;;;;;;5038713;28;20621;-79
2021/01/08 11:26:47;;;;;;;19.30;9.47;;;4.80;99.90;;;;;;5053814;28;20204;-79
2021/01/08 11:29:13;;;;;;;16.30;8.90;;;4.70;99.90;;;;;;5051037;28;20264;-79
2021/01/08 11:31:40;;;;;;;21.90;9.10;;;4.80;99.90;;;;;;5043900;28;20177;-79
2021/01/08 11:34:06;;;;;;;19.67;10.25;;;4.90;99.90;;;;;;5040496;28;20173;-79
2021/01/08 11:36:32;;;;;;;22.33;10.38;;;4.80;99.90;;;;;;5039736;28;20193;-80
2021/01/08 11:38:58;;;;;;;21.23;9.87;;;4.80;99.90;;;;;;5055955;28;20188;-80
2021/01/08 11:41:24;;;;;;;24.83;11.23;;;4.90;99.90;;;;;;5051420;28;20591;-77
2021/01/08 11:43:50;;;;;;;22.93;10.63;;;4.90;99.90;;;;;;5053753;28;20177;-79
2021/01/08 11:46:20;;;;;;;23.07;11.30;;;4.90;99.90;;;;;;5051889;28;20428;-79
2021/01/08 11:48:47;;;;;;;20.15;9.88;;;4.90;99.90;;;;;;5046254;28;20406;-80
2021/01/08 11:51:13;;;;;;;21.63;10.10;;;5.00;99.90;;;;;;5043482;28;20185;-80
2021/01/08 11:53:43;;;;;;;22.25;10.35;;;4.90;99.90;;;;;;5043513;28;20199;-81
2021/01/08 11:56:16;;;;;;;20.55;10.45;;;4.90;99.90;;;;;;5049635;28;20220;-81
2021/01/08 11:58:42;;;;;;;16.20;9.77;;;4.90;99.90;;;;;;5039155;28;20176;-80
2021/01/08 12:01:09;;;;;;;16.92;9.88;;;4.90;99.90;;;;;;5047344;28;20236;-80
2021/01/08 12:03:36;;;;;;;20.67;10.43;;;4.80;99.90;;;;;;5042886;28;20263;-79
2021/01/08 12:06:03;;;;;;;16.45;9.25;;;4.90;99.90;;;;;;5046908;28;20189;-81
2021/01/08 12:08:31;;;;;;;21.20;10.20;;;4.90;99.90;;;;;;5057881;28;20244;-80
2021/01/08 12:10:57;;;;;;;19.60;10.73;;;4.90;99.90;;;;;;5055328;28;20187;-80
2021/01/08 12:13:22;;;;;;;20.75;10.07;;;4.90;99.90;;;;;;5053234;28;20181;-79
2021/01/08 12:15:49;;;;;;;22.00;10.80;;;5.00;99.90;;;;;;5038348;28;20197;-81
2021/01/08 12:18:15;;;;;;;18.40;10.23;;;5.00;99.90;;;;;;5023291;28;20330;-80
2021/01/08 12:20:41;;;;;;;18.02;10.07;;;4.90;99.90;;;;;;5035105;28;20287;-79
2021/01/08 12:23:09;;;;;;;21.83;10.67;;;4.90;99.90;;;;;;5037926;28;20271;-80
2021/01/08 12:25:37;;;;;;;20.88;9.07;;;4.90;99.90;;;;;;5049193;28;20738;-80
2021/01/08 12:28:10;;;;;;;17.13;9.27;;;5.00;99.90;;;;;;5055151;28;20740;-80
2021/01/08 12:30:36;;;;;;;19.90;8.77;;;5.00;99.90;;;;;;5042253;28;20616;-80
2021/01/08 12:33:03;;;;;;;19.98;9.45;;;5.00;99.90;;;;;;5051632;28;20231;-80
2021/01/08 12:35:29;;;;;;;20.15;9.50;;;5.00;99.90;;;;;;5045287;28;20201;-80
2021/01/08 12:37:56;;;;;;;19.38;8.90;;;5.10;99.90;;;;;;5036220;28;20553;-80
2021/01/08 12:40:22;;;;;;;17.70;9.48;;;5.00;99.90;;;;;;5038748;28;20173;-80
2021/01/08 12:42:52;;;;;;;19.38;9.57;;;5.00;99.90;;;;;;5034973;28;20173;-81
2021/01/08 12:45:19;;;;;;;14.27;7.68;;;5.00;99.90;;;;;;5024885;28;20193;-80
2021/01/08 12:47:46;;;;;;;17.20;8.40;;;5.10;99.90;;;;;;5041699;28;20177;-81
2021/01/08 12:50:18;;;;;;;10.60;6.47;;;5.10;99.90;;;;;;5052504;28;20184;-79
2021/01/08 12:52:43;;;;;;;12.98;7.43;;;5.00;99.90;;;;;;5057327;28;20187;-81
2021/01/08 12:55:10;;;;;;;12.00;7.23;;;5.00;99.90;;;;;;5046396;28;20196;-79
2021/01/08 12:57:36;;;;;;;13.35;6.90;;;5.00;99.90;;;;;;5036595;28;20236;-82